Time;durP1;ratioP1;P1;durP2;ratioP2;P2;SDS_P1;SDS_P2;PMS_P1;PMS_P2;Temp;Humidity;BMP_temperature;BMP_pressure;BME280_temperature;BME280_humidity;BME280_pressure;Samples;Min_cycle;Max_cycle;Signal;HPM_P1;HPM_P2
2022/10/23 00:00:35;;;;;;;5.30;1.70;;;;;;;;;;6306521;22;20015;-88
2022/10/23 00:03:01;;;;;;;5.78;1.70;;;;;;;;;;6306676;22;20003;-89
2022/10/23 00:05:27;;;;;;;3.65;1.48;;;;;;;;;;6306737;22;20014;-88
2022/10/23 00:07:54;;;;;;;2.88;1.48;;;;;;;;;;6306431;22;20003;-91
2022/10/23 00:10:22;;;;;;;7.20;1.38;;;;;;;;;;6305862;22;20002;-89
2022/10/23 00:12:48;;;;;;;1.83;1.42;;;;;;;;;;6333864;22;20029;-89
2022/10/23 00:15:16;;;;;;;6.57;1.52;;;;;;;;;;6334249;22;20010;-89
2022/10/23 00:17:42;;;;;;;7.03;1.60;;;;;;;;;;6335165;22;19999;-88
2022/10/23 00:20:08;;;;;;;2.70;1.40;;;;;;;;;;6333968;22;20009;-89
2022/10/23 00:22:34;;;;;;;5.22;1.63;;;;;;;;;;6334051;22;20279;-92
2022/10/23 00:25:00;;;;;;;5.85;1.70;;;;;;;;;;6333805;22;20073;-89
2022/10/23 00:27:26;;;;;;;3.83;1.40;;;;;;;;;;6306027;22;20003;-89
2022/10/23 00:29:52;;;;;;;6.68;1.67;;;;;;;;;;6333945;22;20061;-89
2022/10/23 00:32:18;;;;;;;6.13;1.45;;;;;;;;;;6306446;22;20431;-89
2022/10/23 00:34:45;;;;;;;2.53;1.42;;;;;;;;;;6334854;22;19998;-88
2022/10/23 00:37:11;;;;;;;2.13;1.40;;;;;;;;;;6334862;22;20003;-88
2022/10/23 00:39:37;;;;;;;5.20;1.40;;;;;;;;;;6305650;22;20015;-88
2022/10/23 00:42:03;;;;;;;3.65;1.35;;;;;;;;;;6333248;22;20071;-88
2022/10/23 00:44:29;;;;;;;5.50;1.50;;;;;;;;;;6333664;22;20381;-89
2022/10/23 00:46:55;;;;;;;2.17;1.33;;;;;;;;;;6333872;22;19998;-88
2022/10/23 00:49:21;;;;;;;5.03;1.48;;;;;;;;;;6306492;22;20006;-88
2022/10/23 00:51:52;;;;;;;4.22;1.50;;;;;;;;;;6305963;22;20052;-88
2022/10/23 00:54:20;;;;;;;4.55;1.70;;;;;;;;;;6333285;22;19999;-89
2022/10/23 00:56:47;;;;;;;3.92;1.58;;;;;;;;;;6306109;22;20020;-89
2022/10/23 00:59:13;;;;;;;4.63;1.55;;;;;;;;;;6307322;22;20051;-88
2022/10/23 01:01:39;;;;;;;2.97;1.42;;;;;;;;;;6306032;22;19999;-91
2022/10/23 01:04:06;;;;;;;3.88;1.50;;;;;;;;;;6333332;22;20006;-88
2022/10/23 01:06:38;;;;;;;6.85;1.45;;;;;;;;;;6333224;22;19995;-89
2022/10/23 01:09:08;;;;;;;5.95;1.70;;;;;;;;;;6332936;22;20026;-87
2022/10/23 01:11:37;;;;;;;2.75;1.60;;;;;;;;;;6333850;22;20003;-88
2022/10/23 01:14:07;;;;;;;3.88;1.30;;;;;;;;;;6305888;22;20007;-89
2022/10/23 01:16:38;;;;;;;4.55;1.48;;;;;;;;;;6305756;22;20438;-88
2022/10/23 01:19:11;;;;;;;3.72;1.40;;;;;;;;;;6305267;22;20057;-87
2022/10/23 01:21:46;;;;;;;7.43;1.52;;;;;;;;;;6305693;22;20002;-88
2022/10/23 01:24:30;;;;;;;4.50;1.50;;;;;;;;;;6333356;22;20002;-88
2022/10/23 01:27:14;;;;;;;2.72;1.50;;;;;;;;;;6333578;22;20010;-87
2022/10/23 01:29:43;;;;;;;4.47;1.45;;;;;;;;;;6333463;22;19995;-88
2022/10/23 01:32:10;;;;;;;4.00;1.38;;;;;;;;;;6332785;22;20003;-88
2022/10/23 01:34:48;;;;;;;2.08;1.50;;;;;;;;;;6334497;22;19995;-89
2022/10/23 01:37:19;;;;;;;6.07;2.00;;;;;;;;;;6335463;22;20013;-89
2022/10/23 01:39:47;;;;;;;2.67;1.30;;;;;;;;;;6334406;22;20011;-88
2022/10/23 01:42:14;;;;;;;;;;;;;;;;;;6337825;22;20465;-88
2022/10/23 01:44:45;;;;;;;2.85;1.42;;;;;;;;;;6313420;22;19986;-89
2022/10/23 01:47:12;;;;;;;4.28;1.50;;;;;;;;;;6314466;22;19999;-89
2022/10/23 01:49:39;;;;;;;3.08;1.60;;;;;;;;;;6309194;22;20007;-93
2022/10/23 01:52:07;;;;;;;2.50;1.35;;;;;;;;;;6334328;22;19999;-88
2022/10/23 01:54:35;;;;;;;5.25;1.63;;;;;;;;;;6305823;22;20007;-88
2022/10/23 01:57:02;;;;;;;6.38;1.60;;;;;;;;;;6333276;22;20006;-88
2022/10/23 01:59:31;;;;;;;6.40;1.50;;;;;;;;;;6333250;22;20011;-88
2022/10/23 02:01:57;;;;;;;5.03;1.33;;;;;;;;;;6333692;22;20465;-90
2022/10/23 02:04:26;;;;;;;2.97;1.67;;;;;;;;;;6333574;22;20034;-91
2022/10/23 02:06:52;;;;;;;3.95;1.50;;;;;;;;;;6332949;22;20064;-94
2022/10/23 02:09:18;;;;;;;3.92;1.30;;;;;;;;;;6334039;22;19998;-89
2022/10/23 02:12:06;;;;;;;5.00;1.52;;;;;;;;;;6332923;22;20347;-89
2022/10/23 02:14:32;;;;;;;;;;;;;;;;;;6305767;22;20031;-88
2022/10/23 02:17:02;;;;;;;7.30;1.80;;;;;;;;;;6305401;22;20319;-89
2022/10/23 02:19:49;;;;;;;4.18;1.42;;;;;;;;;;6305185;22;20015;-90
2022/10/23 02:22:15;;;;;;;3.50;1.75;;;;;;;;;;6332502;22;20005;-88
2022/10/23 02:25:01;;;;;;;8.13;1.60;;;;;;;;;;6305318;22;20387;-88
2022/10/23 02:27:34;;;;;;;2.50;1.52;;;;;;;;;;6311665;22;20005;-88
2022/10/23 02:30:03;;;;;;;3.53;1.38;;;;;;;;;;6305641;22;20022;-88
2022/10/23 02:32:29;;;;;;;3.90;1.67;;;;;;;;;;6332755;22;20010;-89
2022/10/23 02:34:55;;;;;;;7.68;1.70;;;;;;;;;;6305354;22;19999;-88
2022/10/23 02:37:24;;;;;;;8.00;1.70;;;;;;;;;;6333927;22;20023;-88
2022/10/23 02:39:50;;;;;;;4.85;1.80;;;;;;;;;;6333975;22;20015;-88
2022/10/23 02:42:22;;;;;;;5.25;1.33;;;;;;;;;;6305091;22;20028;-88
2022/10/23 02:44:58;;;;;;;6.25;1.60;;;;;;;;;;6333732;22;19999;-91
2022/10/23 02:47:30;;;;;;;6.40;1.65;;;;;;;;;;6333173;22;20006;-88
2022/10/23 02:50:03;;;;;;;6.20;1.55;;;;;;;;;;6332891;22;20002;-88
2022/10/23 02:52:41;;;;;;;4.10;1.55;;;;;;;;;;6304504;22;20339;-87
2022/10/23 02:55:19;;;;;;;3.85;1.60;;;;;;;;;;6332515;22;20056;-88
2022/10/23 02:57:52;;;;;;;6.70;1.80;;;;;;;;;;6305080;22;20342;-87
2022/10/23 03:00:20;;;;;;;4.45;1.63;;;;;;;;;;6305695;22;20034;-87
2022/10/23 03:02:56;;;;;;;4.45;1.60;;;;;;;;;;6333003;22;19995;-87
2022/10/23 03:05:24;;;;;;;4.50;1.95;;;;;;;;;;6333837;22;20066;-88
2022/10/23 03:07:51;;;;;;;5.03;1.90;;;;;;;;;;6305806;22;20030;-88
2022/10/23 03:10:17;;;;;;;8.20;1.80;;;;;;;;;;6332931;22;19999;-88
2022/10/23 03:12:43;;;;;;;4.30;2.00;;;;;;;;;;6332548;22;20022;-88
2022/10/23 03:15:11;;;;;;;5.53;1.77;;;;;;;;;;6305058;22;20009;-89
2022/10/23 03:17:37;;;;;;;2.50;1.40;;;;;;;;;;6304927;22;20064;-88
2022/10/23 03:20:04;;;;;;;5.95;1.73;;;;;;;;;;6332283;22;20006;-86
2022/10/23 03:22:30;;;;;;;9.77;1.50;;;;;;;;;;6332203;22;20048;-87
2022/10/23 03:24:56;;;;;;;5.65;1.80;;;;;;;;;;6305468;22;20007;-89
2022/10/23 03:27:22;;;;;;;3.42;1.50;;;;;;;;;;6335548;22;20071;-89
2022/10/23 03:29:48;;;;;;;3.72;1.70;;;;;;;;;;6334455;22;20048;-89
2022/10/23 03:32:14;;;;;;;5.03;2.00;;;;;;;;;;6334201;22;20040;-88
2022/10/23 03:34:40;;;;;;;3.17;1.38;;;;;;;;;;6306048;22;20006;-87
2022/10/23 03:37:06;;;;;;;6.18;1.90;;;;;;;;;;6306959;22;20079;-88
2022/10/23 03:39:32;;;;;;;4.63;1.92;;;;;;;;;;6334524;22;20021;-88
2022/10/23 03:41:58;;;;;;;5.07;1.92;;;;;;;;;;6336713;22;20026;-88
2022/10/23 03:44:24;;;;;;;7.82;1.52;;;;;;;;;;6307829;22;20006;-88
2022/10/23 03:46:50;;;;;;;5.53;1.70;;;;;;;;;;6335119;22;19998;-88
2022/10/23 03:49:16;;;;;;;5.32;1.65;;;;;;;;;;6334648;22;20219;-87
2022/10/23 03:51:42;;;;;;;5.30;1.80;;;;;;;;;;6333608;22;20132;-87
2022/10/23 03:54:09;;;;;;;4.70;1.52;;;;;;;;;;6337540;22;20002;-87
2022/10/23 03:56:35;;;;;;;4.10;1.70;;;;;;;;;;6334346;22;20320;-87
2022/10/23 03:59:01;;;;;;;4.25;1.80;;;;;;;;;;6333810;22;20119;-89
2022/10/23 04:01:27;;;;;;;3.35;1.83;;;;;;;;;;6307787;22;20253;-88
2022/10/23 04:03:54;;;;;;;5.15;1.55;;;;;;;;;;6339351;22;20007;-89
2022/10/23 04:06:20;;;;;;;2.97;1.60;;;;;;;;;;6307554;22;20075;-87
2022/10/23 04:08:46;;;;;;;4.25;1.48;;;;;;;;;;6334430;22;20025;-88
2022/10/23 04:11:12;;;;;;;2.10;1.67;;;;;;;;;;6334753;22;20007;-88
2022/10/23 04:13:38;;;;;;;4.07;1.73;;;;;;;;;;6318333;22;20017;-90
2022/10/23 04:16:04;;;;;;;7.28;1.65;;;;;;;;;;6342367;22;20003;-88
2022/10/23 04:18:30;;;;;;;4.10;1.73;;;;;;;;;;6347063;22;20079;-88
2022/10/23 04:20:56;;;;;;;6.68;1.60;;;;;;;;;;6314712;22;20007;-90
2022/10/23 04:23:22;;;;;;;4.72;1.45;;;;;;;;;;6311869;22;20003;-88
2022/10/23 04:25:48;;;;;;;2.40;1.45;;;;;;;;;;6343836;22;20324;-88
2022/10/23 04:28:15;;;;;;;9.05;1.88;;;;;;;;;;6342273;22;20003;-88
2022/10/23 04:30:41;;;;;;;4.47;2.13;;;;;;;;;;6339379;22;20007;-87
2022/10/23 04:33:07;;;;;;;5.25;1.73;;;;;;;;;;6346203;22;19995;-88
2022/10/23 04:35:33;;;;;;;3.53;1.77;;;;;;;;;;6348523;22;20003;-87
2022/10/23 04:37:59;;;;;;;4.20;1.55;;;;;;;;;;6345040;22;20003;-88
2022/10/23 04:40:25;;;;;;;2.58;1.55;;;;;;;;;;6338186;22;20006;-86
2022/10/23 04:42:52;;;;;;;2.67;1.40;;;;;;;;;;6310536;22;20033;-87
2022/10/23 04:45:18;;;;;;;3.90;1.77;;;;;;;;;;6339886;22;20254;-88
2022/10/23 04:47:44;;;;;;;8.07;1.73;;;;;;;;;;6340117;22;19999;-87
2022/10/23 04:50:10;;;;;;;4.43;1.45;;;;;;;;;;6337318;22;20077;-88
2022/10/23 04:52:36;;;;;;;3.28;1.55;;;;;;;;;;6307117;22;20007;-89
2022/10/23 04:55:02;;;;;;;4.22;1.63;;;;;;;;;;6335920;22;20040;-87
2022/10/23 04:57:29;;;;;;;3.00;1.73;;;;;;;;;;6305951;22;20017;-87
2022/10/23 04:59:55;;;;;;;3.70;1.80;;;;;;;;;;6306850;22;20473;-91
2022/10/23 05:02:22;;;;;;;3.42;1.50;;;;;;;;;;6305654;22;20818;-89
2022/10/23 05:04:48;;;;;;;3.78;1.60;;;;;;;;;;6333731;22;20082;-88
2022/10/23 05:07:14;;;;;;;3.70;1.60;;;;;;;;;;6333580;22;20022;-88
2022/10/23 05:09:40;;;;;;;3.28;1.63;;;;;;;;;;6333304;22;20026;-88
2022/10/23 05:12:06;;;;;;;4.20;1.70;;;;;;;;;;6332584;22;20026;-87
2022/10/23 05:14:32;;;;;;;4.80;1.65;;;;;;;;;;6305884;22;20026;-88
2022/10/23 05:17:00;;;;;;;3.08;1.48;;;;;;;;;;6306926;22;20395;-89
2022/10/23 05:19:32;;;;;;;2.88;1.40;;;;;;;;;;6334046;22;20011;-88
2022/10/23 05:21:58;;;;;;;3.38;1.60;;;;;;;;;;6306797;22;20005;-87
2022/10/23 05:24:25;;;;;;;2.67;1.52;;;;;;;;;;6333375;22;20010;-88
2022/10/23 05:26:51;;;;;;;1.80;1.40;;;;;;;;;;6333454;22;20347;-88
2022/10/23 05:29:20;;;;;;;8.93;1.52;;;;;;;;;;6331043;22;20060;-87
2022/10/23 05:31:49;;;;;;;5.20;2.10;;;;;;;;;;6301583;22;20003;-88
2022/10/23 05:34:17;;;;;;;3.58;1.52;;;;;;;;;;6329989;22;20002;-88
2022/10/23 05:36:44;;;;;;;7.55;1.88;;;;;;;;;;6332561;22;19995;-87
2022/10/23 05:39:10;;;;;;;3.33;1.70;;;;;;;;;;6306424;22;20703;-86
2022/10/23 05:41:36;;;;;;;2.63;1.38;;;;;;;;;;6330359;22;19999;-87
2022/10/23 05:44:02;;;;;;;5.90;1.73;;;;;;;;;;6331983;22;20005;-87
2022/10/23 05:46:28;;;;;;;5.32;1.60;;;;;;;;;;6332792;22;20030;-86
2022/10/23 05:48:54;;;;;;;6.68;1.73;;;;;;;;;;6332605;22;20439;-87
2022/10/23 05:51:21;;;;;;;8.60;2.05;;;;;;;;;;6332947;22;20064;-87
2022/10/23 05:53:52;;;;;;;6.47;1.73;;;;;;;;;;6331074;22;20003;-87
2022/10/23 05:56:18;;;;;;;2.15;1.50;;;;;;;;;;6307009;22;20073;-87
2022/10/23 05:58:44;;;;;;;1.65;1.35;;;;;;;;;;6305817;22;20003;-91
2022/10/23 06:01:11;;;;;;;4.00;1.70;;;;;;;;;;6333067;22;20007;-86
2022/10/23 06:03:38;;;;;;;3.20;1.70;;;;;;;;;;6333560;22;20048;-88
2022/10/23 06:06:05;;;;;;;4.32;1.60;;;;;;;;;;6305821;22;20003;-92
2022/10/23 06:08:31;;;;;;;3.70;1.60;;;;;;;;;;6336567;22;20006;-88
2022/10/23 06:10:57;;;;;;;4.07;1.65;;;;;;;;;;6306150;22;20003;-93
2022/10/23 06:13:23;;;;;;;5.45;1.60;;;;;;;;;;6335225;22;20060;-86
2022/10/23 06:15:49;;;;;;;4.95;1.98;;;;;;;;;;6309250;22;20007;-92
2022/10/23 06:18:16;;;;;;;3.03;1.60;;;;;;;;;;6340881;22;19999;-89
2022/10/23 06:20:42;;;;;;;3.28;1.45;;;;;;;;;;6339178;22;20029;-91
2022/10/23 06:23:08;;;;;;;2.88;1.52;;;;;;;;;;6306563;22;19999;-86
2022/10/23 06:25:34;;;;;;;2.47;1.65;;;;;;;;;;6304988;22;20078;-85
2022/10/23 06:28:00;;;;;;;4.35;1.45;;;;;;;;;;6332748;22;20045;-84
2022/10/23 06:30:26;;;;;;;4.07;1.60;;;;;;;;;;6333600;22;20434;-86
2022/10/23 06:32:52;;;;;;;3.03;1.70;;;;;;;;;;6333725;22;20075;-87
2022/10/23 06:35:18;;;;;;;4.18;1.90;;;;;;;;;;6332976;22;20003;-87
2022/10/23 06:37:44;;;;;;;9.35;1.70;;;;;;;;;;6333769;22;20003;-87
2022/10/23 06:40:10;;;;;;;4.47;1.67;;;;;;;;;;6332870;22;20063;-87
2022/10/23 06:42:36;;;;;;;4.53;1.83;;;;;;;;;;6332871;22;20006;-89
2022/10/23 06:45:05;;;;;;;3.72;1.60;;;;;;;;;;6334281;22;19998;-93
2022/10/23 06:47:31;;;;;;;2.97;1.70;;;;;;;;;;6306430;22;20395;-89
2022/10/23 06:49:57;;;;;;;2.35;1.48;;;;;;;;;;6331934;22;20003;-86
2022/10/23 06:52:23;;;;;;;5.35;1.55;;;;;;;;;;6312085;22;20009;-87
2022/10/23 06:54:52;;;;;;;6.65;1.40;;;;;;;;;;6310785;22;20002;-90
2022/10/23 06:57:18;;;;;;;2.22;1.48;;;;;;;;;;6318871;22;20050;-87
2022/10/23 06:59:47;;;;;;;3.42;1.50;;;;;;;;;;6314434;22;20015;-87
2022/10/23 07:02:13;;;;;;;4.03;1.75;;;;;;;;;;6311748;22;20003;-89
2022/10/23 07:04:40;;;;;;;5.03;1.55;;;;;;;;;;6335719;22;20003;-87
2022/10/23 07:07:06;;;;;;;4.63;1.70;;;;;;;;;;6308234;22;20030;-87
2022/10/23 07:09:32;;;;;;;4.90;1.60;;;;;;;;;;6307560;22;20122;-90
2022/10/23 07:11:58;;;;;;;6.95;1.80;;;;;;;;;;6335339;22;20003;-93
2022/10/23 07:14:24;;;;;;;4.30;1.98;;;;;;;;;;6310984;22;20347;-93
2022/10/23 07:16:50;;;;;;;2.97;1.73;;;;;;;;;;6336080;22;20403;-90
2022/10/23 07:19:16;;;;;;;4.63;1.98;;;;;;;;;;6341921;22;20010;-87
2022/10/23 07:21:47;;;;;;;6.90;2.05;;;;;;;;;;6353959;22;20002;-88
2022/10/23 07:24:14;;;;;;;5.32;2.20;;;;;;;;;;6353194;22;20018;-88
2022/10/23 07:26:40;;;;;;;5.55;2.15;;;;;;;;;;6353006;22;20009;-88
2022/10/23 07:29:07;;;;;;;5.32;2.05;;;;;;;;;;6348926;22;20002;-89
2022/10/23 07:31:33;;;;;;;4.60;2.05;;;;;;;;;;6343291;22;20006;-91
2022/10/23 07:33:59;;;;;;;4.43;2.00;;;;;;;;;;6333751;22;19998;-91
2022/10/23 07:36:25;;;;;;;4.80;2.22;;;;;;;;;;6334876;22;20010;-91
2022/10/23 07:38:51;;;;;;;3.20;2.00;;;;;;;;;;6334607;22;19999;-93
2022/10/23 07:41:17;;;;;;;6.60;2.30;;;;;;;;;;6335027;22;20007;-88
2022/10/23 07:43:44;;;;;;;6.15;2.20;;;;;;;;;;6334950;22;19995;-92
2022/10/23 07:46:10;;;;;;;4.85;2.00;;;;;;;;;;6307596;22;20022;-91
2022/10/23 07:48:36;;;;;;;5.75;2.28;;;;;;;;;;6335218;22;20438;-89
2022/10/23 07:51:07;;;;;;;4.63;2.22;;;;;;;;;;6306976;22;20316;-92
2022/10/23 07:53:33;;;;;;;7.47;2.50;;;;;;;;;;6335636;22;20028;-90
2022/10/23 07:56:01;;;;;;;2.92;1.98;;;;;;;;;;6306693;22;20446;-89
2022/10/23 07:58:27;;;;;;;10.25;2.30;;;;;;;;;;6333585;22;20060;-88
2022/10/23 08:00:58;;;;;;;5.20;2.25;;;;;;;;;;6332972;22;20006;-89
2022/10/23 08:03:31;;;;;;;6.93;2.45;;;;;;;;;;6332241;22;19999;-88
2022/10/23 08:05:58;;;;;;;4.88;2.50;;;;;;;;;;6304583;22;19998;-90
2022/10/23 08:08:25;;;;;;;6.18;2.30;;;;;;;;;;6305875;22;20032;-87
2022/10/23 08:10:52;;;;;;;4.85;2.17;;;;;;;;;;6305197;22;20003;-88
2022/10/23 08:13:21;;;;;;;5.63;2.50;;;;;;;;;;6333703;22;20010;-93
2022/10/23 08:15:48;;;;;;;7.47;2.72;;;;;;;;;;6310408;22;20010;-92
2022/10/23 08:18:14;;;;;;;4.85;2.60;;;;;;;;;;6334380;22;20431;-90
2022/10/23 08:20:41;;;;;;;6.00;2.30;;;;;;;;;;6335110;22;20037;-88
2022/10/23 08:23:07;;;;;;;9.80;2.70;;;;;;;;;;6338805;22;20018;-90
2022/10/23 08:25:33;;;;;;;5.10;2.22;;;;;;;;;;6307786;22;20030;-88
2022/10/23 08:28:00;;;;;;;5.05;2.78;;;;;;;;;;6332858;22;20019;-88
2022/10/23 08:30:26;;;;;;;8.75;2.92;;;;;;;;;;6305770;22;20088;-94
2022/10/23 08:32:52;;;;;;;8.57;2.72;;;;;;;;;;6333366;22;20077;-87
2022/10/23 08:35:18;;;;;;;8.85;2.80;;;;;;;;;;6333716;22;20056;-88
2022/10/23 08:37:44;;;;;;;7.50;2.50;;;;;;;;;;6332988;22;20006;-90
2022/10/23 08:40:22;;;;;;;8.80;2.80;;;;;;;;;;6332043;22;20011;-88
2022/10/23 08:42:53;;;;;;;8.77;3.03;;;;;;;;;;6305112;22;20002;-88
2022/10/23 08:45:27;;;;;;;5.68;2.67;;;;;;;;;;6333639;22;20052;-88
2022/10/23 08:47:56;;;;;;;10.63;3.05;;;;;;;;;;6306481;22;20362;-86
2022/10/23 08:50:27;;;;;;;10.90;3.00;;;;;;;;;;6334865;22;19999;-87
2022/10/23 08:52:53;;;;;;;8.82;2.90;;;;;;;;;;6338341;22;19998;-87
2022/10/23 08:55:29;;;;;;;11.70;3.10;;;;;;;;;;6311975;22;20334;-87
2022/10/23 08:58:02;;;;;;;10.35;2.85;;;;;;;;;;6309724;22;20030;-92
2022/10/23 09:00:28;;;;;;;10.00;2.88;;;;;;;;;;6334384;22;20449;-89
2022/10/23 09:02:54;;;;;;;13.88;3.47;;;;;;;;;;6306220;22;20447;-84
2022/10/23 09:05:30;;;;;;;10.60;2.97;;;;;;;;;;6333236;22;20006;-84
2022/10/23 09:08:04;;;;;;;8.77;3.00;;;;;;;;;;6333629;22;20339;-86
2022/10/23 09:10:37;;;;;;;9.07;2.92;;;;;;;;;;6305640;22;20044;-85
2022/10/23 09:13:16;;;;;;;11.63;2.92;;;;;;;;;;6306013;22;20081;-87
2022/10/23 09:15:47;;;;;;;9.70;3.10;;;;;;;;;;6305859;22;20338;-86
2022/10/23 09:18:15;;;;;;;10.15;3.08;;;;;;;;;;6306045;22;19999;-87
2022/10/23 09:20:41;;;;;;;12.07;3.08;;;;;;;;;;6334805;22;20007;-87
2022/10/23 09:23:14;;;;;;;15.30;3.40;;;;;;;;;;6334211;22;20020;-88
2022/10/23 09:25:41;;;;;;;16.23;3.25;;;;;;;;;;6334863;22;19999;-90
2022/10/23 09:28:12;;;;;;;13.90;3.40;;;;;;;;;;6335411;22;20185;-89
2022/10/23 09:30:39;;;;;;;11.07;3.42;;;;;;;;;;6335646;22;19999;-90
2022/10/23 09:33:16;;;;;;;13.55;3.95;;;;;;;;;;6338770;22;20083;-86
2022/10/23 09:35:54;;;;;;;12.57;3.15;;;;;;;;;;6335915;22;20056;-85
2022/10/23 09:38:47;;;;;;;9.30;3.00;;;;;;;;;;6335536;22;20002;-85
2022/10/23 09:41:19;;;;;;;13.98;3.53;;;;;;;;;;6306502;22;20469;-87
2022/10/23 09:43:45;;;;;;;14.77;4.03;;;;;;;;;;6305816;22;20052;-87
2022/10/23 09:46:11;;;;;;;14.60;3.45;;;;;;;;;;6334314;22;20003;-91
2022/10/23 09:48:38;;;;;;;9.18;3.15;;;;;;;;;;6307084;22;20052;-87
2022/10/23 09:51:15;;;;;;;14.48;4.45;;;;;;;;;;6334202;22;19995;-85
2022/10/23 09:53:49;;;;;;;20.03;3.80;;;;;;;;;;6335181;22;20010;-86
2022/10/23 09:56:32;;;;;;;15.40;3.70;;;;;;;;;;6305268;22;20003;-84
2022/10/23 09:59:03;;;;;;;15.57;3.10;;;;;;;;;;6305764;22;20003;-85
2022/10/23 10:01:37;;;;;;;16.83;3.75;;;;;;;;;;6333409;22;19999;-85
2022/10/23 10:04:03;;;;;;;14.93;3.40;;;;;;;;;;6334392;22;20002;-89
2022/10/23 10:06:33;;;;;;;19.70;4.30;;;;;;;;;;6333494;22;19999;-86
2022/10/23 10:09:17;;;;;;;20.77;3.40;;;;;;;;;;6305343;22;20037;-94
2022/10/23 10:11:46;;;;;;;17.65;3.40;;;;;;;;;;6310399;22;20007;-93
2022/10/23 10:14:31;;;;;;;13.02;3.40;;;;;;;;;;6356679;22;20002;-90
2022/10/23 10:17:01;;;;;;;23.60;3.38;;;;;;;;;;6354745;22;20073;-90
2022/10/23 10:19:33;;;;;;;12.85;3.30;;;;;;;;;;6355996;22;20011;-89
2022/10/23 10:22:19;;;;;;;14.90;3.58;;;;;;;;;;6309975;22;20089;-87
2022/10/23 10:25:04;;;;;;;12.88;2.88;;;;;;;;;;6304310;22;20071;-88
2022/10/23 10:27:35;;;;;;;11.30;2.60;;;;;;;;;;6331587;22;20439;-86
2022/10/23 10:30:10;;;;;;;14.35;3.10;;;;;;;;;;6331446;22;20029;-90
2022/10/23 10:32:57;;;;;;;14.80;2.97;;;;;;;;;;6331841;22;20003;-88
2022/10/23 10:35:29;;;;;;;14.85;2.95;;;;;;;;;;6333627;22;20077;-87
2022/10/23 10:37:55;;;;;;;11.70;2.50;;;;;;;;;;6305801;22;20003;-87
2022/10/23 10:40:21;;;;;;;13.35;2.58;;;;;;;;;;6333668;22;20120;-90
2022/10/23 10:42:59;;;;;;;17.38;2.90;;;;;;;;;;6333591;22;20026;-88
2022/10/23 10:45:25;;;;;;;;;;;;;;;;;;6334198;22;20018;-87
2022/10/23 10:47:58;;;;;;;13.10;2.95;;;;;;;;;;6306459;22;19905;-87
2022/10/23 10:50:33;;;;;;;21.17;2.88;;;;;;;;;;6333153;22;20019;-90
2022/10/23 10:53:18;;;;;;;17.63;3.30;;;;;;;;;;6333088;22;20047;-87
2022/10/23 10:55:47;;;;;;;20.00;3.72;;;;;;;;;;6333570;22;20483;-87
2022/10/23 10:58:33;;;;;;;14.43;3.17;;;;;;;;;;6335812;22;19998;-88
2022/10/23 11:01:01;;;;;;;16.42;2.92;;;;;;;;;;6306126;22;20007;-88
2022/10/23 11:03:35;;;;;;;14.38;2.70;;;;;;;;;;6306719;22;20435;-87
2022/10/23 11:06:04;;;;;;;13.75;3.17;;;;;;;;;;6336785;22;20028;-92
2022/10/23 11:08:37;;;;;;;17.13;2.78;;;;;;;;;;6313034;22;20458;-87
2022/10/23 11:11:24;;;;;;;21.13;2.78;;;;;;;;;;6334002;22;20003;-88
2022/10/23 11:13:52;;;;;;;19.13;3.03;;;;;;;;;;6334613;22;20352;-90
2022/10/23 11:16:24;;;;;;;14.98;3.03;;;;;;;;;;6306955;22;20006;-86
2022/10/23 11:19:08;;;;;;;18.20;2.60;;;;;;;;;;6334271;22;20038;-88
2022/10/23 11:21:39;;;;;;;16.13;2.70;;;;;;;;;;6334386;22;20385;-88
2022/10/23 11:24:05;;;;;;;13.00;2.22;;;;;;;;;;6334327;22;20245;-89
2022/10/23 11:26:31;;;;;;;9.98;2.10;;;;;;;;;;6334608;22;20343;-86
2022/10/23 11:29:09;;;;;;;11.25;2.20;;;;;;;;;;6306957;22;20006;-86
2022/10/23 11:31:43;;;;;;;13.77;2.50;;;;;;;;;;6306468;22;20710;-87
2022/10/23 11:34:29;;;;;;;11.05;2.25;;;;;;;;;;6306555;22;20029;-87
2022/10/23 11:36:58;;;;;;;8.27;1.65;;;;;;;;;;6333741;22;20010;-87
2022/10/23 11:39:30;;;;;;;14.50;2.40;;;;;;;;;;6333203;22;20015;-88
2022/10/23 11:41:57;;;;;;;15.68;2.35;;;;;;;;;;6333299;22;20342;-88
2022/10/23 11:44:28;;;;;;;14.73;1.90;;;;;;;;;;6307126;22;20007;-86
2022/10/23 11:47:02;;;;;;;9.57;2.30;;;;;;;;;;6333801;22;20018;-91
2022/10/23 11:49:28;;;;;;;16.30;2.38;;;;;;;;;;6333838;22;20002;-88
2022/10/23 11:52:01;;;;;;;13.95;2.20;;;;;;;;;;6333726;22;19994;-88
2022/10/23 11:54:27;;;;;;;10.85;1.83;;;;;;;;;;6332570;22;20091;-87
2022/10/23 11:57:13;;;;;;;15.10;2.05;;;;;;;;;;6333326;22;19995;-88
2022/10/23 11:59:42;;;;;;;13.48;2.72;;;;;;;;;;6334225;22;20039;-87
2022/10/23 12:02:24;;;;;;;12.38;2.22;;;;;;;;;;6305240;22;20009;-88
2022/10/23 12:04:51;;;;;;;14.27;2.38;;;;;;;;;;6317539;22;20346;-87
2022/10/23 12:07:23;;;;;;;12.77;2.40;;;;;;;;;;6324754;22;20002;-87
2022/10/23 12:09:55;;;;;;;12.48;2.35;;;;;;;;;;6335814;22;19999;-87
2022/10/23 12:12:32;;;;;;;13.80;2.85;;;;;;;;;;6314854;22;20006;-92
2022/10/23 12:15:13;;;;;;;10.80;2.38;;;;;;;;;;6348851;22;20002;-87
2022/10/23 12:17:39;;;;;;;13.85;2.55;;;;;;;;;;6343859;22;20007;-88
2022/10/23 12:20:14;;;;;;;15.95;3.35;;;;;;;;;;6343811;22;20014;-87
2022/10/23 12:22:43;;;;;;;11.38;2.70;;;;;;;;;;6339152;22;19998;-90
2022/10/23 12:25:16;;;;;;;18.38;3.15;;;;;;;;;;6337282;22;20005;-90
2022/10/23 12:27:49;;;;;;;17.65;2.97;;;;;;;;;;6337139;22;19999;-88
2022/10/23 12:30:15;;;;;;;24.63;3.58;;;;;;;;;;6332809;22;20437;-93
2022/10/23 12:32:48;;;;;;;17.17;3.25;;;;;;;;;;6308489;22;20060;-94
2022/10/23 12:35:18;;;;;;;15.50;2.83;;;;;;;;;;6338253;22;20078;-94
2022/10/23 12:37:51;;;;;;;13.95;2.78;;;;;;;;;;6311277;22;20010;-95
2022/10/23 12:40:17;;;;;;;14.15;2.72;;;;;;;;;;6334546;22;20011;-87
2022/10/23 12:42:51;;;;;;;18.25;2.75;;;;;;;;;;6338921;22;20339;-87
2022/10/23 12:45:41;;;;;;;17.70;2.80;;;;;;;;;;6338815;22;20003;-87
2022/10/23 12:48:16;;;;;;;14.32;2.95;;;;;;;;;;6320574;22;20289;-88
2022/10/23 12:50:49;;;;;;;13.85;2.20;;;;;;;;;;6313731;22;20007;-86
2022/10/23 12:53:16;;;;;;;12.60;2.28;;;;;;;;;;6312601;22;20384;-87
2022/10/23 12:55:43;;;;;;;;;;;;;;;;;;6340096;22;20038;-88
2022/10/23 12:58:18;;;;;;;6.38;2.05;;;;;;;;;;6341861;22;19906;-86
2022/10/23 13:00:50;;;;;;;7.07;1.52;;;;;;;;;;6344100;22;20013;-87
2022/10/23 13:03:17;;;;;;;11.10;1.50;;;;;;;;;;6341108;22;20070;-86
2022/10/23 13:05:43;;;;;;;7.78;1.30;;;;;;;;;;6341999;22;20003;-87
2022/10/23 13:08:10;;;;;;;7.93;1.70;;;;;;;;;;6339186;22;20002;-90
2022/10/23 13:10:37;;;;;;;10.13;1.45;;;;;;;;;;6345100;22;19999;-87
2022/10/23 13:13:04;;;;;;;7.88;1.63;;;;;;;;;;6352364;22;20028;-89
2022/10/23 13:15:41;;;;;;;11.07;1.48;;;;;;;;;;6319821;22;20007;-88
2022/10/23 13:18:08;;;;;;;6.38;1.60;;;;;;;;;;6340198;22;20002;-87
2022/10/23 13:20:37;;;;;;;4.43;1.30;;;;;;;;;;6342238;22;20396;-86
2022/10/23 13:23:30;;;;;;;9.02;1.83;;;;;;;;;;6317463;22;20003;-90
2022/10/23 13:25:57;;;;;;;6.47;1.33;;;;;;;;;;6334067;22;20011;-88
2022/10/23 13:28:25;;;;;;;11.25;1.60;;;;;;;;;;6333251;22;20002;-88
2022/10/23 13:31:05;;;;;;;7.82;1.65;;;;;;;;;;6338128;22;20030;-92
2022/10/23 13:33:33;;;;;;;6.35;1.30;;;;;;;;;;6307306;22;20060;-92
2022/10/23 13:35:59;;;;;;;;;;;;;;;;;;6334309;22;20056;-87
2022/10/23 13:38:31;;;;;;;10.27;1.73;;;;;;;;;;6333225;22;19910;-88
2022/10/23 13:41:01;;;;;;;6.35;1.27;;;;;;;;;;6333420;22;20006;-89
2022/10/23 13:43:29;;;;;;;6.00;1.30;;;;;;;;;;6333709;22;19999;-89
2022/10/23 13:45:55;;;;;;;5.50;1.05;;;;;;;;;;6333961;22;19999;-90
